sensor_id;sensor_type;location;lat;lon;timestamp;P1;durP1;ratioP1;P2;durP2;ratioP2
59273;SDS011;45044;41.572;24.730;2023-03-20T00:03:50;75.13;;;29.00;;
59273;SDS011;45044;41.572;24.730;2023-03-20T00:06:20;41.60;;;18.07;;
59273;SDS011;45044;41.572;24.730;2023-03-20T00:08:50;29.10;;;13.20;;
59273;SDS011;45044;41.572;24.730;2023-03-20T00:14:23;26.80;;;12.10;;
59273;SDS011;45044;41.572;24.730;2023-03-20T00:16:50;35.63;;;16.97;;
59273;SDS011;45044;41.572;24.730;2023-03-20T00:19:19;38.20;;;18.07;;
59273;SDS011;45044;41.572;24.730;2023-03-20T00:21:48;45.00;;;21.93;;
59273;SDS011;45044;41.572;24.730;2023-03-20T00:24:16;33.60;;;19.00;;
59273;SDS011;45044;41.572;24.730;2023-03-20T00:26:44;27.30;;;13.17;;
59273;SDS011;45044;41.572;24.730;2023-03-20T00:31:49;17.00;;;11.37;;
59273;SDS011;45044;41.572;24.730;2023-03-20T00:34:17;24.53;;;13.20;;
59273;SDS011;45044;41.572;24.730;2023-03-20T00:36:46;15.80;;;8.30;;
59273;SDS011;45044;41.572;24.730;2023-03-20T00:39:13;13.03;;;6.80;;
59273;SDS011;45044;41.572;24.730;2023-03-20T00:41:43;13.13;;;7.13;;
59273;SDS011;45044;41.572;24.730;2023-03-20T00:46:58;12.17;;;6.67;;
59273;SDS011;45044;41.572;24.730;2023-03-20T00:49:31;13.90;;;7.70;;
59273;SDS011;45044;41.572;24.730;2023-03-20T00:52:00;16.47;;;8.60;;
59273;SDS011;45044;41.572;24.730;2023-03-20T00:54:29;13.30;;;7.90;;
59273;SDS011;45044;41.572;24.730;2023-03-20T00:56:57;15.07;;;7.73;;
59273;SDS011;45044;41.572;24.730;2023-03-20T00:59:37;14.60;;;8.00;;
59273;SDS011;45044;41.572;24.730;2023-03-20T01:02:07;14.27;;;7.60;;
59273;SDS011;45044;41.572;24.730;2023-03-20T01:04:40;10.40;;;5.47;;
59273;SDS011;45044;41.572;24.730;2023-03-20T01:07:11;10.07;;;5.30;;
59273;SDS011;45044;41.572;24.730;2023-03-20T01:09:39;16.23;;;9.73;;
59273;SDS011;45044;41.572;24.730;2023-03-20T01:12:08;17.53;;;9.13;;
59273;SDS011;45044;41.572;24.730;2023-03-20T01:14:36;29.43;;;15.37;;
59273;SDS011;45044;41.572;24.730;2023-03-20T01:17:03;15.90;;;9.47;;
59273;SDS011;45044;41.572;24.730;2023-03-20T01:19:30;18.17;;;9.20;;
59273;SDS011;45044;41.572;24.730;2023-03-20T01:21:56;30.13;;;14.63;;
59273;SDS011;45044;41.572;24.730;2023-03-20T01:24:23;44.20;;;22.57;;
59273;SDS011;45044;41.572;24.730;2023-03-20T01:26:50;35.63;;;16.70;;
59273;SDS011;45044;41.572;24.730;2023-03-20T01:29:23;18.33;;;8.20;;
59273;SDS011;45044;41.572;24.730;2023-03-20T01:31:52;16.63;;;8.05;;
59273;SDS011;45044;41.572;24.730;2023-03-20T01:34:20;14.27;;;6.97;;
59273;SDS011;45044;41.572;24.730;2023-03-20T01:36:54;18.17;;;8.10;;
59273;SDS011;45044;41.572;24.730;2023-03-20T01:39:29;15.17;;;8.47;;
59273;SDS011;45044;41.572;24.730;2023-03-20T01:41:59;16.10;;;7.90;;
59273;SDS011;45044;41.572;24.730;2023-03-20T01:44:30;17.60;;;9.17;;
59273;SDS011;45044;41.572;24.730;2023-03-20T01:46:58;33.60;;;14.07;;
59273;SDS011;45044;41.572;24.730;2023-03-20T01:51:54;23.17;;;10.87;;
59273;SDS011;45044;41.572;24.730;2023-03-20T01:57:04;20.07;;;9.07;;
59273;SDS011;45044;41.572;24.730;2023-03-20T02:02:13;28.87;;;13.03;;
59273;SDS011;45044;41.572;24.730;2023-03-20T02:04:45;20.63;;;9.93;;
59273;SDS011;45044;41.572;24.730;2023-03-20T02:07:16;17.43;;;8.10;;
59273;SDS011;45044;41.572;24.730;2023-03-20T02:09:46;19.07;;;9.30;;
59273;SDS011;45044;41.572;24.730;2023-03-20T02:12:14;14.23;;;6.80;;
59273;SDS011;45044;41.572;24.730;2023-03-20T02:14:42;17.67;;;8.47;;
59273;SDS011;45044;41.572;24.730;2023-03-20T02:17:11;20.00;;;9.57;;
59273;SDS011;45044;41.572;24.730;2023-03-20T02:20:03;19.50;;;9.57;;
59273;SDS011;45044;41.572;24.730;2023-03-20T02:25:13;12.83;;;6.33;;
59273;SDS011;45044;41.572;24.730;2023-03-20T02:39:12;18.33;;;9.17;;
59273;SDS011;45044;41.572;24.730;2023-03-20T02:58:37;15.38;;;8.52;;
59273;SDS011;45044;41.572;24.730;2023-03-20T03:01:18;13.73;;;8.40;;
59273;SDS011;45044;41.572;24.730;2023-03-20T03:09:10;13.43;;;7.03;;
59273;SDS011;45044;41.572;24.730;2023-03-20T03:11:50;13.13;;;7.07;;
59273;SDS011;45044;41.572;24.730;2023-03-20T03:17:31;21.77;;;11.83;;
59273;SDS011;45044;41.572;24.730;2023-03-20T03:20:02;23.57;;;12.00;;
59273;SDS011;45044;41.572;24.730;2023-03-20T03:22:34;16.67;;;9.50;;
59273;SDS011;45044;41.572;24.730;2023-03-20T03:25:01;18.87;;;10.17;;
59273;SDS011;45044;41.572;24.730;2023-03-20T03:27:35;14.77;;;7.60;;
59273;SDS011;45044;41.572;24.730;2023-03-20T03:30:08;12.77;;;6.73;;
59273;SDS011;45044;41.572;24.730;2023-03-20T03:32:42;13.60;;;7.80;;
59273;SDS011;45044;41.572;24.730;2023-03-20T03:35:16;15.60;;;8.07;;
59273;SDS011;45044;41.572;24.730;2023-03-20T03:37:55;15.43;;;8.75;;
59273;SDS011;45044;41.572;24.730;2023-03-20T03:48:25;23.10;;;10.10;;
59273;SDS011;45044;41.572;24.730;2023-03-20T03:50:57;38.93;;;19.90;;
59273;SDS011;45044;41.572;24.730;2023-03-20T03:53:31;114.68;;;57.65;;
59273;SDS011;45044;41.572;24.730;2023-03-20T03:56:05;96.93;;;49.70;;
59273;SDS011;45044;41.572;24.730;2023-03-20T03:58:36;39.33;;;22.38;;
59273;SDS011;45044;41.572;24.730;2023-03-20T04:01:08;118.70;;;62.83;;
59273;SDS011;45044;41.572;24.730;2023-03-20T04:03:42;68.83;;;35.30;;
59273;SDS011;45044;41.572;24.730;2023-03-20T04:06:12;36.88;;;17.77;;
59273;SDS011;45044;41.572;24.730;2023-03-20T04:08:41;40.50;;;19.23;;
59273;SDS011;45044;41.572;24.730;2023-03-20T04:11:16;32.87;;;17.70;;
59273;SDS011;45044;41.572;24.730;2023-03-20T04:13:45;27.80;;;14.10;;
59273;SDS011;45044;41.572;24.730;2023-03-20T04:16:14;25.60;;;14.73;;
59273;SDS011;45044;41.572;24.730;2023-03-20T04:18:42;42.73;;;22.97;;
59273;SDS011;45044;41.572;24.730;2023-03-20T04:21:10;82.57;;;42.53;;
59273;SDS011;45044;41.572;24.730;2023-03-20T04:23:38;69.00;;;38.30;;
59273;SDS011;45044;41.572;24.730;2023-03-20T04:26:05;68.33;;;34.77;;
59273;SDS011;45044;41.572;24.730;2023-03-20T04:28:32;56.13;;;30.33;;
59273;SDS011;45044;41.572;24.730;2023-03-20T04:31:00;65.33;;;34.37;;
59273;SDS011;45044;41.572;24.730;2023-03-20T04:33:27;55.83;;;27.83;;
59273;SDS011;45044;41.572;24.730;2023-03-20T04:35:55;51.80;;;26.93;;
59273;SDS011;45044;41.572;24.730;2023-03-20T04:38:22;48.77;;;26.27;;
59273;SDS011;45044;41.572;24.730;2023-03-20T04:40:49;49.53;;;26.40;;
59273;SDS011;45044;41.572;24.730;2023-03-20T04:43:16;41.40;;;24.83;;
59273;SDS011;45044;41.572;24.730;2023-03-20T04:45:43;41.47;;;24.07;;
59273;SDS011;45044;41.572;24.730;2023-03-20T04:48:10;41.83;;;25.13;;
59273;SDS011;45044;41.572;24.730;2023-03-20T04:50:37;37.53;;;20.63;;
59273;SDS011;45044;41.572;24.730;2023-03-20T04:53:04;35.00;;;20.23;;
59273;SDS011;45044;41.572;24.730;2023-03-20T04:55:31;33.43;;;20.13;;
59273;SDS011;45044;41.572;24.730;2023-03-20T04:57:58;38.30;;;24.87;;
59273;SDS011;45044;41.572;24.730;2023-03-20T05:00:25;40.93;;;26.13;;
59273;SDS011;45044;41.572;24.730;2023-03-20T05:02:51;101.17;;;76.50;;
59273;SDS011;45044;41.572;24.730;2023-03-20T05:05:18;142.93;;;102.33;;
59273;SDS011;45044;41.572;24.730;2023-03-20T05:07:45;61.93;;;43.17;;
59273;SDS011;45044;41.572;24.730;2023-03-20T05:10:12;62.53;;;38.67;;
59273;SDS011;45044;41.572;24.730;2023-03-20T05:12:39;76.23;;;55.60;;
59273;SDS011;45044;41.572;24.730;2023-03-20T05:15:06;81.27;;;56.00;;
59273;SDS011;45044;41.572;24.730;2023-03-20T05:17:33;67.10;;;47.87;;
59273;SDS011;45044;41.572;24.730;2023-03-20T05:20:00;58.97;;;38.57;;
59273;SDS011;45044;41.572;24.730;2023-03-20T05:22:26;67.90;;;49.73;;
59273;SDS011;45044;41.572;24.730;2023-03-20T05:24:53;67.00;;;47.10;;
59273;SDS011;45044;41.572;24.730;2023-03-20T05:27:20;63.07;;;43.23;;
59273;SDS011;45044;41.572;24.730;2023-03-20T05:29:47;37.70;;;26.13;;
59273;SDS011;45044;41.572;24.730;2023-03-20T05:32:13;38.40;;;25.00;;
59273;SDS011;45044;41.572;24.730;2023-03-20T05:34:40;47.47;;;30.23;;
59273;SDS011;45044;41.572;24.730;2023-03-20T05:37:07;45.83;;;33.23;;
59273;SDS011;45044;41.572;24.730;2023-03-20T05:39:34;49.90;;;35.13;;
59273;SDS011;45044;41.572;24.730;2023-03-20T05:42:01;50.70;;;34.67;;
59273;SDS011;45044;41.572;24.730;2023-03-20T05:44:27;53.13;;;36.70;;
59273;SDS011;45044;41.572;24.730;2023-03-20T05:46:54;65.77;;;46.07;;
59273;SDS011;45044;41.572;24.730;2023-03-20T05:49:21;70.30;;;48.13;;
59273;SDS011;45044;41.572;24.730;2023-03-20T05:51:47;80.45;;;53.90;;
59273;SDS011;45044;41.572;24.730;2023-03-20T05:54:14;81.15;;;55.58;;
59273;SDS011;45044;41.572;24.730;2023-03-20T05:56:41;57.13;;;46.55;;
59273;SDS011;45044;41.572;24.730;2023-03-20T05:59:08;63.83;;;49.15;;
59273;SDS011;45044;41.572;24.730;2023-03-20T06:01:36;57.50;;;45.60;;
59273;SDS011;45044;41.572;24.730;2023-03-20T06:04:03;52.63;;;40.28;;
59273;SDS011;45044;41.572;24.730;2023-03-20T06:06:30;55.80;;;40.60;;
59273;SDS011;45044;41.572;24.730;2023-03-20T06:08:57;46.47;;;35.80;;
59273;SDS011;45044;41.572;24.730;2023-03-20T06:11:23;60.20;;;46.70;;
59273;SDS011;45044;41.572;24.730;2023-03-20T06:13:50;69.43;;;52.90;;
59273;SDS011;45044;41.572;24.730;2023-03-20T06:16:20;67.63;;;48.47;;
59273;SDS011;45044;41.572;24.730;2023-03-20T06:18:47;62.10;;;47.15;;
59273;SDS011;45044;41.572;24.730;2023-03-20T06:21:14;63.88;;;49.70;;
59273;SDS011;45044;41.572;24.730;2023-03-20T06:23:41;59.50;;;47.72;;
59273;SDS011;45044;41.572;24.730;2023-03-20T06:26:08;64.57;;;50.20;;
59273;SDS011;45044;41.572;24.730;2023-03-20T06:28:35;68.35;;;53.63;;
59273;SDS011;45044;41.572;24.730;2023-03-20T06:31:02;59.85;;;51.05;;
59273;SDS011;45044;41.572;24.730;2023-03-20T06:33:30;59.00;;;48.60;;
59273;SDS011;45044;41.572;24.730;2023-03-20T06:35:57;57.15;;;49.05;;
59273;SDS011;45044;41.572;24.730;2023-03-20T06:38:24;59.08;;;51.55;;
59273;SDS011;45044;41.572;24.730;2023-03-20T06:40:51;54.55;;;48.90;;
59273;SDS011;45044;41.572;24.730;2023-03-20T06:43:17;55.97;;;49.58;;
59273;SDS011;45044;41.572;24.730;2023-03-20T06:45:44;50.90;;;44.25;;
59273;SDS011;45044;41.572;24.730;2023-03-20T06:48:11;46.33;;;37.58;;
59273;SDS011;45044;41.572;24.730;2023-03-20T06:50:38;41.15;;;36.70;;
59273;SDS011;45044;41.572;24.730;2023-03-20T06:53:05;39.47;;;35.05;;
59273;SDS011;45044;41.572;24.730;2023-03-20T06:55:32;41.78;;;35.00;;
59273;SDS011;45044;41.572;24.730;2023-03-20T06:57:59;38.97;;;34.72;;
59273;SDS011;45044;41.572;24.730;2023-03-20T07:00:25;37.38;;;32.95;;
59273;SDS011;45044;41.572;24.730;2023-03-20T07:02:52;36.10;;;32.28;;
59273;SDS011;45044;41.572;24.730;2023-03-20T07:05:19;33.80;;;29.58;;
59273;SDS011;45044;41.572;24.730;2023-03-20T07:07:46;31.80;;;27.60;;
59273;SDS011;45044;41.572;24.730;2023-03-20T07:10:13;37.53;;;28.63;;
59273;SDS011;45044;41.572;24.730;2023-03-20T07:12:40;36.25;;;28.33;;
59273;SDS011;45044;41.572;24.730;2023-03-20T07:15:07;31.67;;;28.02;;
59273;SDS011;45044;41.572;24.730;2023-03-20T07:17:34;30.23;;;24.58;;
59273;SDS011;45044;41.572;24.730;2023-03-20T07:20:02;26.38;;;21.63;;
59273;SDS011;45044;41.572;24.730;2023-03-20T07:22:29;33.97;;;25.75;;
59273;SDS011;45044;41.572;24.730;2023-03-20T07:24:57;35.00;;;25.42;;
59273;SDS011;45044;41.572;24.730;2023-03-20T07:27:23;38.40;;;28.17;;
59273;SDS011;45044;41.572;24.730;2023-03-20T07:29:51;33.40;;;25.42;;
59273;SDS011;45044;41.572;24.730;2023-03-20T07:32:17;28.98;;;21.50;;
59273;SDS011;45044;41.572;24.730;2023-03-20T07:34:44;18.40;;;14.93;;
59273;SDS011;45044;41.572;24.730;2023-03-20T07:37:13;20.75;;;15.73;;
59273;SDS011;45044;41.572;24.730;2023-03-20T07:39:39;21.48;;;16.77;;
59273;SDS011;45044;41.572;24.730;2023-03-20T07:42:06;18.55;;;14.88;;
59273;SDS011;45044;41.572;24.730;2023-03-20T07:44:33;15.93;;;12.68;;
59273;SDS011;45044;41.572;24.730;2023-03-20T07:47:00;13.18;;;9.18;;
59273;SDS011;45044;41.572;24.730;2023-03-20T07:49:27;11.25;;;7.50;;
59273;SDS011;45044;41.572;24.730;2023-03-20T07:51:53;12.80;;;9.45;;
59273;SDS011;45044;41.572;24.730;2023-03-20T07:54:22;21.48;;;13.73;;
59273;SDS011;45044;41.572;24.730;2023-03-20T07:56:49;23.08;;;15.13;;
59273;SDS011;45044;41.572;24.730;2023-03-20T07:59:16;20.33;;;14.95;;
59273;SDS011;45044;41.572;24.730;2023-03-20T08:01:43;21.77;;;14.35;;
59273;SDS011;45044;41.572;24.730;2023-03-20T08:04:10;24.95;;;14.70;;
59273;SDS011;45044;41.572;24.730;2023-03-20T08:06:37;17.30;;;12.95;;
59273;SDS011;45044;41.572;24.730;2023-03-20T08:09:07;19.30;;;13.07;;
59273;SDS011;45044;41.572;24.730;2023-03-20T08:11:33;19.30;;;11.93;;
59273;SDS011;45044;41.572;24.730;2023-03-20T08:14:00;14.93;;;10.23;;
59273;SDS011;45044;41.572;24.730;2023-03-20T08:16:27;11.18;;;7.55;;
59273;SDS011;45044;41.572;24.730;2023-03-20T08:18:54;12.45;;;8.50;;
59273;SDS011;45044;41.572;24.730;2023-03-20T08:21:27;15.60;;;9.70;;
59273;SDS011;45044;41.572;24.730;2023-03-20T08:23:57;10.02;;;6.95;;
59273;SDS011;45044;41.572;24.730;2023-03-20T08:26:24;17.33;;;10.10;;
59273;SDS011;45044;41.572;24.730;2023-03-20T08:28:51;15.77;;;8.93;;
59273;SDS011;45044;41.572;24.730;2023-03-20T08:31:18;16.58;;;8.52;;
59273;SDS011;45044;41.572;24.730;2023-03-20T08:33:45;14.88;;;6.47;;
59273;SDS011;45044;41.572;24.730;2023-03-20T08:36:12;11.32;;;6.32;;
59273;SDS011;45044;41.572;24.730;2023-03-20T08:38:41;15.00;;;9.10;;
59273;SDS011;45044;41.572;24.730;2023-03-20T08:41:08;12.02;;;5.93;;
59273;SDS011;45044;41.572;24.730;2023-03-20T08:43:35;13.32;;;6.65;;
59273;SDS011;45044;41.572;24.730;2023-03-20T08:46:02;12.10;;;5.30;;
59273;SDS011;45044;41.572;24.730;2023-03-20T08:48:30;10.63;;;4.13;;
59273;SDS011;45044;41.572;24.730;2023-03-20T08:50:57;13.30;;;5.88;;
59273;SDS011;45044;41.572;24.730;2023-03-20T08:53:23;15.52;;;5.43;;
59273;SDS011;45044;41.572;24.730;2023-03-20T08:55:50;8.10;;;3.35;;
59273;SDS011;45044;41.572;24.730;2023-03-20T08:58:20;7.75;;;2.85;;
59273;SDS011;45044;41.572;24.730;2023-03-20T09:00:47;6.43;;;2.85;;
59273;SDS011;45044;41.572;24.730;2023-03-20T09:03:16;7.28;;;2.78;;
59273;SDS011;45044;41.572;24.730;2023-03-20T09:05:47;3.75;;;1.52;;
59273;SDS011;45044;41.572;24.730;2023-03-20T09:08:16;7.07;;;2.35;;
59273;SDS011;45044;41.572;24.730;2023-03-20T09:10:43;4.97;;;1.70;;
59273;SDS011;45044;41.572;24.730;2023-03-20T09:13:13;3.30;;;1.60;;
59273;SDS011;45044;41.572;24.730;2023-03-20T09:15:53;4.03;;;1.65;;
59273;SDS011;45044;41.572;24.730;2023-03-20T09:18:21;1.90;;;1.20;;
59273;SDS011;45044;41.572;24.730;2023-03-20T09:20:49;2.22;;;1.30;;
59273;SDS011;45044;41.572;24.730;2023-03-20T09:23:16;2.42;;;1.00;;
59273;SDS011;45044;41.572;24.730;2023-03-20T09:25:44;1.80;;;1.05;;
59273;SDS011;45044;41.572;24.730;2023-03-20T09:28:12;2.28;;;1.17;;
59273;SDS011;45044;41.572;24.730;2023-03-20T09:30:40;2.92;;;1.00;;
59273;SDS011;45044;41.572;24.730;2023-03-20T09:33:09;2.65;;;0.90;;
59273;SDS011;45044;41.572;24.730;2023-03-20T09:35:37;1.63;;;0.88;;
59273;SDS011;45044;41.572;24.730;2023-03-20T09:38:04;4.55;;;2.28;;
59273;SDS011;45044;41.572;24.730;2023-03-20T09:51:36;3.17;;;1.50;;
59273;SDS011;45044;41.572;24.730;2023-03-20T09:56:40;1.45;;;0.90;;
59273;SDS011;45044;41.572;24.730;2023-03-20T09:59:07;1.60;;;1.10;;
59273;SDS011;45044;41.572;24.730;2023-03-20T10:01:44;1.13;;;0.85;;
59273;SDS011;45044;41.572;24.730;2023-03-20T10:04:13;2.38;;;1.00;;
59273;SDS011;45044;41.572;24.730;2023-03-20T10:06:41;2.28;;;1.48;;
59273;SDS011;45044;41.572;24.730;2023-03-20T10:09:14;6.40;;;2.80;;
59273;SDS011;45044;41.572;24.730;2023-03-20T10:14:40;1.75;;;0.98;;
59273;SDS011;45044;41.572;24.730;2023-03-20T10:23:35;1.98;;;1.20;;
59273;SDS011;45044;41.572;24.730;2023-03-20T10:26:04;2.35;;;1.60;;
59273;SDS011;45044;41.572;24.730;2023-03-20T10:28:40;2.50;;;1.50;;
59273;SDS011;45044;41.572;24.730;2023-03-20T10:34:04;2.63;;;1.45;;
59273;SDS011;45044;41.572;24.730;2023-03-20T10:39:53;2.28;;;1.02;;
59273;SDS011;45044;41.572;24.730;2023-03-20T10:42:27;1.70;;;0.80;;
59273;SDS011;45044;41.572;24.730;2023-03-20T10:45:02;2.15;;;1.13;;
59273;SDS011;45044;41.572;24.730;2023-03-20T10:47:35;2.65;;;1.05;;
59273;SDS011;45044;41.572;24.730;2023-03-20T10:50:10;4.63;;;2.10;;
59273;SDS011;45044;41.572;24.730;2023-03-20T10:55:21;2.78;;;1.40;;
59273;SDS011;45044;41.572;24.730;2023-03-20T10:57:55;4.25;;;2.25;;
59273;SDS011;45044;41.572;24.730;2023-03-20T11:00:27;1.80;;;1.30;;
59273;SDS011;45044;41.572;24.730;2023-03-20T11:02:54;3.65;;;1.40;;
59273;SDS011;45044;41.572;24.730;2023-03-20T11:07:51;2.28;;;1.23;;
59273;SDS011;45044;41.572;24.730;2023-03-20T11:10:27;3.65;;;1.67;;
59273;SDS011;45044;41.572;24.730;2023-03-20T11:12:57;2.58;;;1.33;;
59273;SDS011;45044;41.572;24.730;2023-03-20T11:15:33;3.38;;;1.40;;
59273;SDS011;45044;41.572;24.730;2023-03-20T11:18:03;1.92;;;0.90;;
59273;SDS011;45044;41.572;24.730;2023-03-20T11:20:34;2.35;;;1.27;;
59273;SDS011;45044;41.572;24.730;2023-03-20T11:23:05;1.85;;;1.10;;
59273;SDS011;45044;41.572;24.730;2023-03-20T11:25:35;4.20;;;1.85;;
59273;SDS011;45044;41.572;24.730;2023-03-20T11:28:17;4.13;;;1.42;;
59273;SDS011;45044;41.572;24.730;2023-03-20T11:31:16;4.32;;;1.63;;
59273;SDS011;45044;41.572;24.730;2023-03-20T11:34:08;3.25;;;1.65;;
59273;SDS011;45044;41.572;24.730;2023-03-20T11:36:37;2.47;;;1.20;;
59273;SDS011;45044;41.572;24.730;2023-03-20T11:39:11;1.92;;;1.17;;
59273;SDS011;45044;41.572;24.730;2023-03-20T11:41:46;2.85;;;1.38;;
59273;SDS011;45044;41.572;24.730;2023-03-20T11:44:21;2.08;;;1.15;;
59273;SDS011;45044;41.572;24.730;2023-03-20T11:49:25;2.65;;;1.45;;
59273;SDS011;45044;41.572;24.730;2023-03-20T11:51:58;1.95;;;1.10;;
59273;SDS011;45044;41.572;24.730;2023-03-20T11:54:27;4.20;;;1.35;;
59273;SDS011;45044;41.572;24.730;2023-03-20T11:56:58;2.42;;;1.40;;
59273;SDS011;45044;41.572;24.730;2023-03-20T11:59:30;3.65;;;1.70;;
59273;SDS011;45044;41.572;24.730;2023-03-20T12:02:03;2.47;;;1.63;;
59273;SDS011;45044;41.572;24.730;2023-03-20T12:04:42;3.78;;;1.67;;
59273;SDS011;45044;41.572;24.730;2023-03-20T12:09:59;2.80;;;1.20;;
59273;SDS011;45044;41.572;24.730;2023-03-20T12:17:55;2.83;;;1.67;;
59273;SDS011;45044;41.572;24.730;2023-03-20T12:23:05;3.90;;;1.73;;
59273;SDS011;45044;41.572;24.730;2023-03-20T12:25:53;4.78;;;1.60;;
59273;SDS011;45044;41.572;24.730;2023-03-20T12:28:39;4.15;;;1.60;;
59273;SDS011;45044;41.572;24.730;2023-03-20T12:33:53;2.67;;;1.65;;
59273;SDS011;45044;41.572;24.730;2023-03-20T12:36:49;3.13;;;1.63;;
59273;SDS011;45044;41.572;24.730;2023-03-20T12:39:24;3.10;;;1.70;;
59273;SDS011;45044;41.572;24.730;2023-03-20T12:42:14;2.85;;;1.73;;
59273;SDS011;45044;41.572;24.730;2023-03-20T12:47:45;4.43;;;2.20;;
59273;SDS011;45044;41.572;24.730;2023-03-20T12:55:57;4.07;;;2.15;;
59273;SDS011;45044;41.572;24.730;2023-03-20T13:01:47;4.75;;;2.40;;
59273;SDS011;45044;41.572;24.730;2023-03-20T13:10:05;4.60;;;1.92;;
59273;SDS011;45044;41.572;24.730;2023-03-20T13:16:02;4.32;;;1.90;;
59273;SDS011;45044;41.572;24.730;2023-03-20T13:24:21;3.35;;;1.98;;
59273;SDS011;45044;41.572;24.730;2023-03-20T13:27:09;2.15;;;1.63;;
59273;SDS011;45044;41.572;24.730;2023-03-20T13:30:00;3.00;;;1.80;;
59273;SDS011;45044;41.572;24.730;2023-03-20T13:35:12;3.40;;;1.65;;
59273;SDS011;45044;41.572;24.730;2023-03-20T13:37:53;3.25;;;1.85;;
59273;SDS011;45044;41.572;24.730;2023-03-20T14:05:17;5.43;;;2.50;;
59273;SDS011;45044;41.572;24.730;2023-03-20T14:07:48;5.00;;;2.17;;
59273;SDS011;45044;41.572;24.730;2023-03-20T14:13:10;3.45;;;1.90;;
59273;SDS011;45044;41.572;24.730;2023-03-20T14:15:45;7.00;;;4.07;;
59273;SDS011;45044;41.572;24.730;2023-03-20T14:18:17;4.30;;;2.60;;
59273;SDS011;45044;41.572;24.730;2023-03-20T14:20:55;5.47;;;2.47;;
59273;SDS011;45044;41.572;24.730;2023-03-20T14:23:34;7.82;;;2.40;;
59273;SDS011;45044;41.572;24.730;2023-03-20T14:26:04;6.05;;;2.80;;
59273;SDS011;45044;41.572;24.730;2023-03-20T14:29:37;4.90;;;2.53;;
59273;SDS011;45044;41.572;24.730;2023-03-20T14:31:37;6.75;;;3.22;;
59273;SDS011;45044;41.572;24.730;2023-03-20T14:42:17;6.50;;;3.30;;
59273;SDS011;45044;41.572;24.730;2023-03-20T14:47:43;5.68;;;2.95;;
59273;SDS011;45044;41.572;24.730;2023-03-20T14:50:25;3.55;;;2.20;;
59273;SDS011;45044;41.572;24.730;2023-03-20T14:52:57;5.25;;;2.90;;
59273;SDS011;45044;41.572;24.730;2023-03-20T14:57:56;6.22;;;3.25;;
59273;SDS011;45044;41.572;24.730;2023-03-20T15:00:28;5.70;;;2.78;;
59273;SDS011;45044;41.572;24.730;2023-03-20T15:03:08;5.47;;;3.17;;
59273;SDS011;45044;41.572;24.730;2023-03-20T15:05:37;9.90;;;6.47;;
59273;SDS011;45044;41.572;24.730;2023-03-20T15:08:06;11.48;;;6.50;;
59273;SDS011;45044;41.572;24.730;2023-03-20T15:10:36;10.68;;;8.40;;
59273;SDS011;45044;41.572;24.730;2023-03-20T15:13:12;7.32;;;5.05;;
59273;SDS011;45044;41.572;24.730;2023-03-20T15:18:43;5.60;;;2.70;;
59273;SDS011;45044;41.572;24.730;2023-03-20T15:21:13;4.68;;;2.80;;
59273;SDS011;45044;41.572;24.730;2023-03-20T15:23:44;10.93;;;7.38;;
59273;SDS011;45044;41.572;24.730;2023-03-20T15:26:13;5.32;;;3.45;;
59273;SDS011;45044;41.572;24.730;2023-03-20T15:28:41;6.78;;;3.95;;
59273;SDS011;45044;41.572;24.730;2023-03-20T15:31:29;5.45;;;3.60;;
59273;SDS011;45044;41.572;24.730;2023-03-20T15:33:59;5.70;;;3.25;;
59273;SDS011;45044;41.572;24.730;2023-03-20T15:36:28;4.85;;;3.00;;
59273;SDS011;45044;41.572;24.730;2023-03-20T15:39:14;6.07;;;3.58;;
59273;SDS011;45044;41.572;24.730;2023-03-20T15:41:43;8.40;;;4.38;;
59273;SDS011;45044;41.572;24.730;2023-03-20T15:44:16;7.85;;;4.80;;
59273;SDS011;45044;41.572;24.730;2023-03-20T15:49:27;6.60;;;3.90;;
59273;SDS011;45044;41.572;24.730;2023-03-20T15:52:04;22.55;;;12.55;;
59273;SDS011;45044;41.572;24.730;2023-03-20T15:54:35;15.10;;;8.68;;
59273;SDS011;45044;41.572;24.730;2023-03-20T15:57:02;10.60;;;7.60;;
59273;SDS011;45044;41.572;24.730;2023-03-20T15:59:31;20.35;;;13.25;;
59273;SDS011;45044;41.572;24.730;2023-03-20T16:01:59;13.75;;;8.63;;
59273;SDS011;45044;41.572;24.730;2023-03-20T16:04:28;18.92;;;12.13;;
59273;SDS011;45044;41.572;24.730;2023-03-20T16:06:56;17.83;;;13.35;;
59273;SDS011;45044;41.572;24.730;2023-03-20T16:09:25;9.55;;;7.13;;
59273;SDS011;45044;41.572;24.730;2023-03-20T16:11:55;11.25;;;8.15;;
59273;SDS011;45044;41.572;24.730;2023-03-20T16:14:25;30.83;;;27.52;;
59273;SDS011;45044;41.572;24.730;2023-03-20T16:16:55;29.45;;;24.05;;
59273;SDS011;45044;41.572;24.730;2023-03-20T16:19:24;43.08;;;34.72;;
59273;SDS011;45044;41.572;24.730;2023-03-20T16:21:53;42.10;;;35.58;;
59273;SDS011;45044;41.572;24.730;2023-03-20T16:24:28;36.03;;;30.13;;
59273;SDS011;45044;41.572;24.730;2023-03-20T16:26:59;34.83;;;26.90;;
59273;SDS011;45044;41.572;24.730;2023-03-20T16:29:31;43.28;;;32.10;;
59273;SDS011;45044;41.572;24.730;2023-03-20T16:32:06;41.35;;;32.63;;
59273;SDS011;45044;41.572;24.730;2023-03-20T16:34:45;105.80;;;75.82;;
59273;SDS011;45044;41.572;24.730;2023-03-20T16:37:21;84.63;;;54.90;;
59273;SDS011;45044;41.572;24.730;2023-03-20T16:40:00;75.65;;;55.10;;
59273;SDS011;45044;41.572;24.730;2023-03-20T16:42:38;58.40;;;40.53;;
59273;SDS011;45044;41.572;24.730;2023-03-20T16:45:05;52.65;;;39.42;;
59273;SDS011;45044;41.572;24.730;2023-03-20T16:50:37;34.83;;;30.35;;
59273;SDS011;45044;41.572;24.730;2023-03-20T16:53:09;32.25;;;24.40;;
59273;SDS011;45044;41.572;24.730;2023-03-20T16:55:43;30.45;;;24.90;;
59273;SDS011;45044;41.572;24.730;2023-03-20T16:58:22;34.95;;;25.80;;
59273;SDS011;45044;41.572;24.730;2023-03-20T17:01:04;42.58;;;29.80;;
59273;SDS011;45044;41.572;24.730;2023-03-20T17:08:51;37.28;;;28.67;;
59273;SDS011;45044;41.572;24.730;2023-03-20T17:13:52;36.92;;;31.17;;
59273;SDS011;45044;41.572;24.730;2023-03-20T17:16:20;43.88;;;33.78;;
59273;SDS011;45044;41.572;24.730;2023-03-20T17:19:06;58.38;;;45.55;;
59273;SDS011;45044;41.572;24.730;2023-03-20T17:21:39;61.10;;;45.78;;
59273;SDS011;45044;41.572;24.730;2023-03-20T17:24:06;60.95;;;42.80;;
59273;SDS011;45044;41.572;24.730;2023-03-20T17:26:33;79.05;;;49.53;;
59273;SDS011;45044;41.572;24.730;2023-03-20T17:29:00;58.67;;;38.40;;
59273;SDS011;45044;41.572;24.730;2023-03-20T17:31:26;55.55;;;38.72;;
59273;SDS011;45044;41.572;24.730;2023-03-20T17:33:53;67.13;;;45.53;;
59273;SDS011;45044;41.572;24.730;2023-03-20T17:36:22;71.47;;;46.20;;
59273;SDS011;45044;41.572;24.730;2023-03-20T17:38:52;75.25;;;49.30;;
59273;SDS011;45044;41.572;24.730;2023-03-20T17:41:20;58.50;;;40.88;;
59273;SDS011;45044;41.572;24.730;2023-03-20T17:43:48;49.58;;;34.25;;
59273;SDS011;45044;41.572;24.730;2023-03-20T17:46:20;51.65;;;37.75;;
59273;SDS011;45044;41.572;24.730;2023-03-20T17:48:51;56.43;;;38.37;;
59273;SDS011;45044;41.572;24.730;2023-03-20T17:51:29;174.93;;;98.35;;
59273;SDS011;45044;41.572;24.730;2023-03-20T17:53:57;121.82;;;72.43;;
59273;SDS011;45044;41.572;24.730;2023-03-20T17:56:25;35.10;;;27.80;;
59273;SDS011;45044;41.572;24.730;2023-03-20T17:58:58;45.17;;;28.45;;
59273;SDS011;45044;41.572;24.730;2023-03-20T18:01:26;43.53;;;30.08;;